createdAt,value
2018-04-17T04:09:02.633Z,9.51
2018-04-17T04:09:28.134Z,9.44
2018-04-17T04:09:53.595Z,9.48
2018-04-17T04:10:19.165Z,9.46
2018-04-17T04:10:44.675Z,9.51
2018-04-17T04:11:10.153Z,9.55
2018-04-17T04:11:35.661Z,9.55
2018-04-17T04:12:01.181Z,9.46
2018-04-17T04:12:26.699Z,9.54
2018-04-17T04:12:52.149Z,9.48
2018-04-17T04:13:17.642Z,9.4
2018-04-17T04:13:43.136Z,9.5
2018-04-17T04:14:08.808Z,9.54
2018-04-17T04:14:34.330Z,9.4
2018-04-17T04:14:59.840Z,9.48
2018-04-17T04:15:25.345Z,9.51
2018-04-17T04:15:50.865Z,9.44
2018-04-17T04:16:16.375Z,9.5
2018-04-17T04:16:41.807Z,9.47
2018-04-17T04:17:07.279Z,9.5
2018-04-17T04:17:32.754Z,9.47
2018-04-17T04:17:58.196Z,9.5
2018-04-17T04:18:23.677Z,9.55
2018-04-17T04:18:49.136Z,9.58
2018-04-17T04:19:14.605Z,9.61
2018-04-17T04:19:40.057Z,9.54
2018-04-17T04:20:05.558Z,9.58
2018-04-17T04:20:31.243Z,9.55
2018-04-17T04:20:56.805Z,9.61
2018-04-17T04:21:22.295Z,9.55
2018-04-17T04:21:47.798Z,9.5
2018-04-17T04:22:13.605Z,9.55
2018-04-17T04:22:39.170Z,9.62
2018-04-17T04:23:04.657Z,9.56
2018-04-17T04:23:30.209Z,9.58
2018-04-17T04:23:55.726Z,9.58
2018-04-17T04:24:21.258Z,9.56
2018-04-17T04:24:46.732Z,9.51
2018-04-17T04:25:12.232Z,9.55
2018-04-17T04:25:37.685Z,9.56
2018-04-17T04:26:03.187Z,9.48
2018-04-17T04:26:28.693Z,9.5
2018-04-17T04:26:54.160Z,9.54
2018-04-17T04:27:19.656Z,9.55
2018-04-17T04:27:45.158Z,9.4
2018-04-17T04:28:10.839Z,9.37
2018-04-17T04:28:36.506Z,9.55
2018-04-17T04:29:02.026Z,9.5
2018-04-17T04:29:27.492Z,9.5
2018-04-17T04:29:52.996Z,9.5
2018-04-17T04:30:18.553Z,9.5
2018-04-17T04:30:44.032Z,9.39
2018-04-17T04:31:09.464Z,9.44
2018-04-17T04:31:35.207Z,9.41
2018-04-17T04:32:00.919Z,9.4
2018-04-17T04:32:26.439Z,9.41
2018-04-17T04:32:52.000Z,9.41
2018-04-17T04:33:17.662Z,9.37
2018-04-17T04:33:43.249Z,9.43
2018-04-17T04:34:09.108Z,9.37
2018-04-17T04:34:34.780Z,9.46
2018-04-17T04:35:00.534Z,9.41
2018-04-17T04:35:26.975Z,9.46
2018-04-17T04:35:52.804Z,9.4
2018-04-17T04:36:18.410Z,9.36
2018-04-17T04:36:44.024Z,9.4
2018-04-17T04:37:09.930Z,9.44
2018-04-17T04:37:35.513Z,9.37
2018-04-17T04:38:01.094Z,9.41
2018-04-17T04:38:26.672Z,9.39
2018-04-17T04:38:52.314Z,9.4
2018-04-17T04:39:17.988Z,9.39
2018-04-17T04:39:43.820Z,9.43
2018-04-17T04:40:09.383Z,9.4
2018-04-17T04:40:35.407Z,9.43
2018-04-17T04:41:00.828Z,9.46
2018-04-17T04:41:26.388Z,9.43
2018-04-17T04:41:51.895Z,9.37
2018-04-17T04:42:17.599Z,9.4
2018-04-17T04:42:44.010Z,9.43
2018-04-17T04:43:09.700Z,9.44
2018-04-17T04:43:35.454Z,9.44
2018-04-17T04:44:01.037Z,9.48
2018-04-17T04:44:26.843Z,9.51
2018-04-17T04:44:52.275Z,9.41
2018-04-17T04:45:17.889Z,9.37
2018-04-17T04:45:43.338Z,9.43
2018-04-17T04:46:09.052Z,9.46
2018-04-17T04:46:34.696Z,9.41
2018-04-17T04:47:00.549Z,9.4
2018-04-17T04:47:26.297Z,9.41
2018-04-17T04:47:51.797Z,9.46
2018-04-17T04:48:17.379Z,9.55
2018-04-17T04:48:42.785Z,9.5
2018-04-17T04:49:08.375Z,9.51
2018-04-17T04:49:34.078Z,9.47
2018-04-17T04:49:59.790Z,9.51
2018-04-17T04:50:25.712Z,9.54
2018-04-17T04:50:52.175Z,9.51
2018-04-17T04:51:17.731Z,9.58
2018-04-17T04:51:43.392Z,9.58
2018-04-17T04:52:09.119Z,9.61
2018-04-17T04:52:34.552Z,9.59
2018-04-17T04:53:00.011Z,9.56
2018-04-17T04:53:25.467Z,9.58
2018-04-17T04:53:50.956Z,9.61
2018-04-17T04:54:16.419Z,9.64
2018-04-17T04:54:41.874Z,9.64
2018-04-17T04:55:07.342Z,9.64
2018-04-17T04:55:32.862Z,9.73
2018-04-17T04:55:58.426Z,9.55
2018-04-17T04:56:23.939Z,9.64
2018-04-17T04:56:49.350Z,9.76
2018-04-17T04:57:14.855Z,9.61
2018-04-17T04:57:40.381Z,9.73
2018-04-17T04:58:05.796Z,9.66
2018-04-17T04:58:31.281Z,9.65
2018-04-17T04:58:56.786Z,9.68
2018-04-17T04:59:22.329Z,9.68
2018-04-17T04:59:47.867Z,9.68
2018-04-17T05:00:13.288Z,9.69
2018-04-17T05:00:38.796Z,9.66
2018-04-17T05:01:04.208Z,9.65
2018-04-17T05:01:29.691Z,9.68
2018-04-17T05:01:55.109Z,9.69
2018-04-17T05:02:20.591Z,9.68
2018-04-17T05:02:46.059Z,9.73
2018-04-17T05:03:11.602Z,9.68
2018-04-17T05:03:37.072Z,9.66
2018-04-17T05:04:02.546Z,9.69
2018-04-17T05:04:28.016Z,9.74
2018-04-17T05:04:53.515Z,9.79
2018-04-17T05:05:19.089Z,9.65
2018-04-17T05:05:44.685Z,9.79
2018-04-17T05:06:10.170Z,9.68
2018-04-17T05:06:35.659Z,9.8
2018-04-17T05:07:01.073Z,9.77
2018-04-17T05:07:26.594Z,9.69
2018-04-17T05:07:52.118Z,9.77
2018-04-17T05:08:17.523Z,9.77
2018-04-17T05:08:43.138Z,9.77
2018-04-17T05:09:08.580Z,9.79
2018-04-17T05:09:34.129Z,9.76
2018-04-17T05:09:59.576Z,9.8
2018-04-17T05:10:25.025Z,9.8
2018-04-17T05:10:50.518Z,9.84
2018-04-17T05:11:16.025Z,9.82
2018-04-17T05:11:41.472Z,9.84
2018-04-17T05:12:06.910Z,9.74
2018-04-17T05:12:32.343Z,9.87
2018-04-17T05:12:57.836Z,9.76
2018-04-17T05:13:23.330Z,9.91
2018-04-17T05:13:48.720Z,9.91
2018-04-17T05:14:14.205Z,9.87
2018-04-17T05:14:39.729Z,9.89
2018-04-17T05:15:05.133Z,9.89
2018-04-17T05:15:30.616Z,9.94
2018-04-17T05:15:56.098Z,9.91
2018-04-17T05:16:21.599Z,9.94
2018-04-17T05:16:47.071Z,9.89
2018-04-17T05:17:12.615Z,9.91
2018-04-17T05:17:38.188Z,9.94
2018-04-17T05:18:03.679Z,9.98
2018-04-17T05:18:29.152Z,9.95
2018-04-17T05:18:54.567Z,10.04
2018-04-17T05:19:20.011Z,9.98
2018-04-17T05:19:45.479Z,10.01
2018-04-17T05:20:10.983Z,10.05
2018-04-17T05:20:36.466Z,9.98
2018-04-17T05:21:01.954Z,10.01
2018-04-17T05:21:27.436Z,10.12
2018-04-17T05:21:52.846Z,10.07
2018-04-17T05:22:18.328Z,10.1
2018-04-17T05:22:43.874Z,10.13
2018-04-17T05:23:09.363Z,10.13
2018-04-17T05:23:34.852Z,10.1
2018-04-17T05:24:00.313Z,10.12
2018-04-17T05:24:25.851Z,10.16
2018-04-17T05:24:51.465Z,10.15
2018-04-17T05:25:17.000Z,10.22
2018-04-17T05:25:42.502Z,10.22
2018-04-17T05:26:07.944Z,10.2
2018-04-17T05:26:33.402Z,10.26
2018-04-17T05:26:58.953Z,10.17
2018-04-17T05:27:24.530Z,10.22
2018-04-17T05:27:50.134Z,10.16
2018-04-17T05:28:15.662Z,10.19
2018-04-17T05:28:41.087Z,10.26
2018-04-17T05:29:06.502Z,10.19
2018-04-17T05:29:32.003Z,10.31
2018-04-17T05:29:57.456Z,10.31
2018-04-17T05:30:22.936Z,10.25
2018-04-17T05:30:48.451Z,10.25
2018-04-17T05:31:13.888Z,10.26
2018-04-17T05:31:39.367Z,10.33
2018-04-17T05:32:04.830Z,10.4
2018-04-17T05:32:30.351Z,10.37
2018-04-17T05:32:55.731Z,10.53
2018-04-17T05:33:21.226Z,10.42
2018-04-17T05:33:46.733Z,10.46
2018-04-17T05:34:12.161Z,10.49
2018-04-17T05:34:37.717Z,10.51
2018-04-17T05:35:03.181Z,10.56
2018-04-17T05:35:28.640Z,10.59
2018-04-17T05:35:54.111Z,10.63
2018-04-17T05:36:19.549Z,10.69
2018-04-17T05:36:45.081Z,10.84
2018-04-17T05:37:10.568Z,10.76
2018-04-17T05:37:36.000Z,10.81
2018-04-17T05:38:01.521Z,10.86
2018-04-17T05:38:26.923Z,10.92
2018-04-17T05:38:52.408Z,10.94
2018-04-17T05:39:17.863Z,10.99
2018-04-17T05:39:43.426Z,11
2018-04-17T05:40:08.903Z,11.11
2018-04-17T05:40:34.343Z,11.08
2018-04-17T05:40:59.834Z,11.15
2018-04-17T05:41:25.292Z,11.19
2018-04-17T05:41:50.735Z,11.22
2018-04-17T05:42:16.172Z,11.29
2018-04-17T05:42:41.648Z,11.33
2018-04-17T05:43:07.141Z,11.4
2018-04-17T05:43:32.670Z,11.37
2018-04-17T05:43:58.070Z,11.44
2018-04-17T05:44:23.529Z,11.54
2018-04-17T05:44:49.001Z,11.57
2018-04-17T05:45:14.418Z,11.57
2018-04-17T05:45:39.943Z,11.57
2018-04-17T05:46:05.377Z,11.51
2018-04-17T05:46:30.783Z,11.55
2018-04-17T05:46:56.260Z,11.65
2018-04-17T05:47:21.746Z,11.62
2018-04-17T05:47:47.190Z,11.7
2018-04-17T05:48:12.666Z,11.73
2018-04-17T05:48:38.094Z,11.72
2018-04-17T05:49:03.690Z,11.68
2018-04-17T05:49:29.119Z,11.88
2018-04-17T05:49:54.557Z,11.8
2018-04-17T05:50:20.074Z,11.94
2018-04-17T05:50:45.479Z,11.9
2018-04-17T05:51:10.965Z,11.99
2018-04-17T05:51:36.426Z,11.97
2018-04-17T05:52:01.923Z,11.97
2018-04-17T05:52:27.386Z,11.97
2018-04-17T05:52:52.873Z,11.94
2018-04-17T05:53:18.357Z,11.94
2018-04-17T05:53:43.742Z,12
2018-04-17T05:54:09.223Z,11.95
2018-04-17T05:54:34.652Z,12
2018-04-17T05:55:00.183Z,12.07
2018-04-17T05:55:25.583Z,12.07
2018-04-17T05:55:51.162Z,12.07
2018-04-17T05:56:16.515Z,12.13
2018-04-17T05:56:41.950Z,12.17
2018-04-17T05:57:07.402Z,12.21
2018-04-17T05:57:32.935Z,12.18
2018-04-17T05:57:58.368Z,12.17
2018-04-17T05:58:23.865Z,12.25
2018-04-17T05:58:49.404Z,12.18
2018-04-17T05:59:14.905Z,12.22
2018-04-17T05:59:40.339Z,12.28
2018-04-17T06:00:05.801Z,12.21
2018-04-17T06:00:31.530Z,12.25
2018-04-17T06:00:56.925Z,12.28
2018-04-17T06:01:22.573Z,12.32
2018-04-17T06:01:48.086Z,12.39
2018-04-17T06:02:13.668Z,12.42
2018-04-17T06:02:39.080Z,12.37
2018-04-17T06:03:04.601Z,12.32
2018-04-17T06:03:30.018Z,12.42
2018-04-17T06:03:55.524Z,12.46
2018-04-17T06:04:20.946Z,12.42
2018-04-17T06:04:46.372Z,12.46
2018-04-17T06:05:12.024Z,12.5
2018-04-17T06:05:37.487Z,12.47
2018-04-17T06:06:02.970Z,12.42
2018-04-17T06:06:28.461Z,12.46
2018-04-17T06:06:54.033Z,12.62
2018-04-17T06:07:19.447Z,12.57
2018-04-17T06:07:44.976Z,12.5
2018-04-17T06:08:10.391Z,12.65
2018-04-17T06:08:35.951Z,12.58
2018-04-17T06:09:01.340Z,12.64
2018-04-17T06:09:26.802Z,12.64
2018-04-17T06:09:52.390Z,12.7
2018-04-17T06:10:17.948Z,12.7
2018-04-17T06:10:43.465Z,12.73
2018-04-17T06:11:09.033Z,12.83
2018-04-17T06:11:34.463Z,12.73
2018-04-17T06:11:59.912Z,12.75
2018-04-17T06:12:25.344Z,12.8
2018-04-17T06:12:50.866Z,12.85
2018-04-17T06:13:16.429Z,12.85
2018-04-17T06:13:41.857Z,12.93
2018-04-17T06:14:07.655Z,12.93
2018-04-17T06:14:33.080Z,12.93
2018-04-17T06:14:58.527Z,12.91
2018-04-17T06:15:24.019Z,12.91
2018-04-17T06:15:49.715Z,12.98
2018-04-17T06:16:15.092Z,12.94
2018-04-17T06:16:41.041Z,13.03
2018-04-17T06:17:06.519Z,13.03
2018-04-17T06:17:32.111Z,13.11
2018-04-17T06:17:57.608Z,13.11
2018-04-17T06:18:23.312Z,13.13
2018-04-17T06:18:48.904Z,13.12
2018-04-17T06:19:14.354Z,13.18
2018-04-17T06:19:40.036Z,13.13
2018-04-17T06:20:05.926Z,13.18
2018-04-17T06:20:31.442Z,13.23
2018-04-17T06:20:56.847Z,13.25
2018-04-17T06:21:22.395Z,13.22
2018-04-17T06:21:47.898Z,13.33
2018-04-17T06:22:13.408Z,13.33
2018-04-17T06:22:38.829Z,13.3
2018-04-17T06:23:04.314Z,13.39
2018-04-17T06:23:29.740Z,13.35
2018-04-17T06:23:55.358Z,13.38
2018-04-17T06:24:20.818Z,13.46
2018-04-17T06:24:46.366Z,13.3
2018-04-17T06:25:11.797Z,13.3
2018-04-17T06:25:37.282Z,13.31
2018-04-17T06:26:02.862Z,13.35
2018-04-17T06:26:28.287Z,13.5
2018-04-17T06:26:53.846Z,13.37
2018-04-17T06:27:20.266Z,13.46
2018-04-17T06:27:45.676Z,13.44
2018-04-17T06:28:11.248Z,13.39
2018-04-17T06:28:36.859Z,13.38
2018-04-17T06:29:02.336Z,13.44
2018-04-17T06:29:27.813Z,13.41
2018-04-17T06:29:53.355Z,13.38
2018-04-17T06:30:18.824Z,13.35
2018-04-17T06:30:44.325Z,13.46
2018-04-17T06:31:09.880Z,13.39
2018-04-17T06:31:35.279Z,13.42
2018-04-17T06:32:00.997Z,13.41
2018-04-17T06:32:26.573Z,13.44
2018-04-17T06:32:52.203Z,13.52
2018-04-17T06:33:17.768Z,13.5
2018-04-17T06:33:43.463Z,13.54
2018-04-17T06:34:09.604Z,13.57
2018-04-17T06:34:35.256Z,13.62
2018-04-17T06:35:00.919Z,13.56
2018-04-17T06:35:26.625Z,13.67
2018-04-17T06:35:52.346Z,13.74
2018-04-17T06:36:18.048Z,13.7
2018-04-17T06:36:43.707Z,13.67
2018-04-17T06:37:09.300Z,13.6
2018-04-17T06:37:34.910Z,13.7
2018-04-17T06:38:01.246Z,13.6
2018-04-17T06:38:26.807Z,13.63
2018-04-17T06:38:52.303Z,13.62
2018-04-17T06:39:17.822Z,13.67
2018-04-17T06:39:43.307Z,13.67
2018-04-17T06:40:08.815Z,13.72
2018-04-17T06:40:34.309Z,13.72
2018-04-17T06:40:59.784Z,13.72
2018-04-17T06:41:25.293Z,13.7
2018-04-17T06:41:50.803Z,13.77
2018-04-17T06:42:16.320Z,13.74
2018-04-17T06:42:41.755Z,13.75
2018-04-17T06:43:07.261Z,13.79
2018-04-17T06:43:32.750Z,13.77
2018-04-17T06:43:58.240Z,13.79
2018-04-17T06:44:23.728Z,13.77
2018-04-17T06:44:49.257Z,13.89
2018-04-17T06:45:14.780Z,13.92
2018-04-17T06:45:40.252Z,13.95
2018-04-17T06:46:05.826Z,13.89
2018-04-17T06:46:31.311Z,14
2018-04-17T06:46:57.049Z,14.04
2018-04-17T06:47:22.578Z,14.1
2018-04-17T06:47:48.194Z,14.1
2018-04-17T06:48:13.740Z,14.14
2018-04-17T06:48:39.237Z,14.32
2018-04-17T06:49:04.733Z,14.2
2018-04-17T06:49:30.192Z,14.29
2018-04-17T06:49:55.690Z,14.36
2018-04-17T06:50:21.204Z,14.4
2018-04-17T06:50:46.719Z,14.41
2018-04-17T06:51:12.429Z,14.41
2018-04-17T06:51:37.899Z,14.41
2018-04-17T06:52:03.580Z,14.33
2018-04-17T06:52:29.022Z,14.3
2018-04-17T06:52:54.677Z,14.33
2018-04-17T06:53:20.214Z,14.29
2018-04-17T06:53:45.672Z,14.3
2018-04-17T06:54:11.137Z,14.3
2018-04-17T06:54:36.619Z,14.25
2018-04-17T06:55:02.111Z,14.29
2018-04-17T06:55:27.604Z,14.26
2018-04-17T06:55:53.259Z,14.28
2018-04-17T06:56:18.750Z,14.29
2018-04-17T06:56:44.238Z,14.35
2018-04-17T06:57:09.713Z,14.28
2018-04-17T06:57:35.239Z,14.26
2018-04-17T06:58:00.741Z,14.29
2018-04-17T06:58:26.219Z,14.3
2018-04-17T06:58:51.745Z,14.41
2018-04-17T06:59:17.239Z,14.43
2018-04-17T06:59:42.714Z,14.36
2018-04-17T07:00:08.206Z,14.36
2018-04-17T07:00:33.685Z,14.37
2018-04-17T07:00:59.163Z,14.33
2018-04-17T07:01:24.642Z,14.35
2018-04-17T07:01:50.177Z,14.43
2018-04-17T07:02:15.911Z,14.43
2018-04-17T07:02:41.333Z,14.45
2018-04-17T07:03:06.802Z,14.44
2018-04-17T07:03:32.300Z,14.5
2018-04-17T07:03:57.774Z,14.47
2018-04-17T07:04:23.243Z,14.48
2018-04-17T07:04:48.765Z,14.55
2018-04-17T07:05:14.300Z,14.59
2018-04-17T07:05:39.752Z,14.59
2018-04-17T07:06:05.279Z,14.66
2018-04-17T07:06:30.764Z,14.69
2018-04-17T07:06:56.267Z,14.78
2018-04-17T07:07:21.755Z,14.81
2018-04-17T07:07:47.299Z,14.85
2018-04-17T07:08:12.828Z,14.73
2018-04-17T07:08:38.258Z,14.84
2018-04-17T07:09:03.767Z,14.84
2018-04-17T07:09:29.304Z,14.89
2018-04-17T07:09:54.803Z,14.88
2018-04-17T07:10:20.287Z,14.88
2018-04-17T07:10:45.762Z,15.04
2018-04-17T07:11:11.250Z,14.99
2018-04-17T07:11:36.778Z,15.06
2018-04-17T07:12:02.262Z,15.06
2018-04-17T07:12:27.766Z,15.06
2018-04-17T07:12:53.271Z,15.15
2018-04-17T07:13:18.875Z,15.19
2018-04-17T07:13:44.429Z,15.22
2018-04-17T07:14:09.913Z,15.22
2018-04-17T07:14:35.404Z,15.25
2018-04-17T07:15:00.906Z,15.27
2018-04-17T07:15:26.421Z,15.25
2018-04-17T07:15:51.923Z,15.19
2018-04-17T07:16:17.411Z,15.29
2018-04-17T07:16:42.910Z,15.29
2018-04-17T07:17:08.407Z,15.33
2018-04-17T07:17:33.910Z,15.25
2018-04-17T07:17:59.409Z,15.35
2018-04-17T07:18:24.909Z,15.37
2018-04-17T07:18:50.413Z,15.42
2018-04-17T07:19:15.921Z,15.36
2018-04-17T07:19:41.426Z,15.49
2018-04-17T07:20:06.908Z,15.52
2018-04-17T07:20:32.419Z,15.51
2018-04-17T07:20:57.938Z,15.55
2018-04-17T07:21:23.428Z,15.54
2018-04-17T07:22:11.262Z,15.59
2018-04-17T07:22:36.783Z,15.64
2018-04-17T07:23:02.275Z,15.68
2018-04-17T07:23:27.775Z,15.67
2018-04-17T07:23:53.256Z,15.72
2018-04-17T07:24:18.759Z,15.67
2018-04-17T07:24:44.265Z,15.72
2018-04-17T07:25:09.727Z,15.72
2018-04-17T07:25:35.225Z,15.72
2018-04-17T07:26:00.747Z,15.75
2018-04-17T07:26:26.267Z,15.8
2018-04-17T07:26:51.822Z,15.88
2018-04-17T07:27:17.306Z,15.91
2018-04-17T07:27:42.774Z,15.91
2018-04-17T07:28:08.343Z,15.9
2018-04-17T07:28:33.797Z,15.94
2018-04-17T07:28:59.280Z,15.91
2018-04-17T07:29:24.849Z,15.97
2018-04-17T07:29:50.327Z,15.94
2018-04-17T07:30:15.785Z,16.02
2018-04-17T07:30:41.298Z,16.01
2018-04-17T07:31:06.768Z,16.02
2018-04-17T07:31:32.254Z,16.02
2018-04-17T07:31:57.756Z,16.13
2018-04-17T07:32:23.245Z,16.16
2018-04-17T07:32:48.768Z,16.09
2018-04-17T07:33:14.252Z,16.1
2018-04-17T07:33:39.742Z,16.16
2018-04-17T07:34:05.274Z,16.17
2018-04-17T07:34:30.777Z,16.09
2018-04-17T07:34:56.266Z,16.08
2018-04-17T07:35:21.768Z,16.2
2018-04-17T07:35:47.255Z,16.21
2018-04-17T07:36:12.737Z,16.16
2018-04-17T07:36:38.251Z,16.15
2018-04-17T07:37:03.769Z,16.2
2018-04-17T07:37:29.255Z,16.2
2018-04-17T07:37:54.742Z,16.2
2018-04-17T07:38:20.236Z,16.16
2018-04-17T07:38:45.704Z,16.16
2018-04-17T07:39:11.204Z,16.23
2018-04-17T07:39:36.736Z,16.21
2018-04-17T07:40:02.232Z,16.29
2018-04-17T07:40:27.789Z,16.28
2018-04-17T07:40:53.231Z,16.29
2018-04-17T07:41:18.734Z,16.26
2018-04-17T07:41:44.220Z,16.29
2018-04-17T07:42:09.709Z,16.36
2018-04-17T07:42:35.207Z,16.36
2018-04-17T07:43:00.712Z,16.35
2018-04-17T07:43:26.194Z,16.32
2018-04-17T07:43:51.712Z,16.38
2018-04-17T07:44:17.221Z,16.35
2018-04-17T07:44:42.692Z,16.47
2018-04-17T07:45:08.176Z,16.46
2018-04-17T07:45:33.660Z,16.54
2018-04-17T07:45:59.124Z,16.43
2018-04-17T07:46:24.626Z,16.54
2018-04-17T07:46:50.108Z,16.65
2018-04-17T07:47:15.609Z,16.53
2018-04-17T07:47:41.116Z,16.6
2018-04-17T07:48:06.562Z,16.6
2018-04-17T07:48:32.082Z,16.61
2018-04-17T07:48:57.563Z,16.76
2018-04-17T07:49:23.062Z,16.69
2018-04-17T07:49:48.527Z,16.75
2018-04-17T07:50:14.044Z,16.79
2018-04-17T07:50:39.526Z,16.78
2018-04-17T07:51:05.015Z,16.76
2018-04-17T07:51:30.503Z,16.84
2018-04-17T07:51:55.989Z,16.84
2018-04-17T07:52:21.489Z,16.93
2018-04-17T07:52:46.972Z,16.96
2018-04-17T07:53:12.474Z,17.06
2018-04-17T07:53:37.953Z,16.97
2018-04-17T07:54:03.461Z,17.05
2018-04-17T07:54:28.969Z,17.06
2018-04-17T07:54:54.461Z,17.16
2018-04-17T07:55:19.941Z,17.22
2018-04-17T07:55:45.459Z,17.14
2018-04-17T07:56:10.944Z,17.23
2018-04-17T07:56:36.480Z,17.24
2018-04-17T07:57:01.962Z,17.23
2018-04-17T07:57:27.458Z,17.36
2018-04-17T07:57:52.988Z,17.24
2018-04-17T07:58:18.450Z,17.3
2018-04-17T07:58:43.941Z,17.33
2018-04-17T07:59:09.434Z,17.24
2018-04-17T07:59:34.912Z,17.31
2018-04-17T08:00:00.380Z,17.27
2018-04-17T08:00:25.875Z,17.24
2018-04-17T08:00:51.320Z,17.3
2018-04-17T08:01:16.833Z,17.27
2018-04-17T08:01:42.325Z,17.29
2018-04-17T08:02:07.797Z,17.27
2018-04-17T08:02:33.285Z,17.3
2018-04-17T08:02:58.767Z,17.26
2018-04-17T08:03:24.228Z,17.29
2018-04-17T08:03:49.765Z,17.26
2018-04-17T08:04:15.372Z,17.3
2018-04-17T08:04:40.765Z,17.26
2018-04-17T08:05:06.260Z,17.23
2018-04-17T08:05:31.742Z,17.3
2018-04-17T08:05:57.229Z,17.24
2018-04-17T08:06:22.718Z,17.29
2018-04-17T08:06:48.212Z,17.27
2018-04-17T08:07:13.724Z,17.24
2018-04-17T08:07:39.230Z,17.3
2018-04-17T08:08:04.728Z,17.34
2018-04-17T08:08:30.272Z,17.44
2018-04-17T08:08:55.781Z,17.38
2018-04-17T08:09:21.286Z,17.36
2018-04-17T08:09:46.833Z,17.46
2018-04-17T08:10:12.289Z,17.49
2018-04-17T08:10:37.772Z,17.42
2018-04-17T08:11:03.266Z,17.54
2018-04-17T08:11:28.773Z,17.64
2018-04-17T08:11:54.330Z,17.7
2018-04-17T08:12:19.768Z,17.7
2018-04-17T08:12:45.271Z,17.72
2018-04-17T08:13:10.747Z,17.7
2018-04-17T08:13:36.330Z,17.72
2018-04-17T08:14:01.850Z,17.83
2018-04-17T08:14:27.362Z,17.83
2018-04-17T08:14:52.943Z,17.78
2018-04-17T08:15:18.522Z,17.82
2018-04-17T08:15:44.053Z,17.85
2018-04-17T08:16:09.641Z,17.87
2018-04-17T08:16:35.219Z,17.86
2018-04-17T08:17:00.817Z,17.8
2018-04-17T08:17:26.303Z,17.85
2018-04-17T08:17:51.890Z,17.92
2018-04-17T08:18:17.677Z,17.97
2018-04-17T08:18:43.212Z,18.01
2018-04-17T08:19:08.795Z,18
2018-04-17T08:19:34.422Z,18.05
2018-04-17T08:19:59.946Z,18.03
2018-04-17T08:20:25.545Z,18.04
2018-04-17T08:20:51.145Z,18.04
2018-04-17T08:21:49.772Z,18.1
2018-04-17T08:22:15.417Z,18.07
2018-04-17T08:22:40.923Z,18.1
2018-04-17T08:23:06.494Z,18.15
2018-04-17T08:23:32.113Z,18.15
2018-04-17T08:23:57.730Z,18.18
2018-04-17T08:24:23.461Z,18.2
2018-04-17T08:24:48.914Z,18.23
2018-04-17T08:25:14.507Z,18.19
2018-04-17T08:25:40.185Z,18.2
2018-04-17T08:26:05.729Z,18.25
2018-04-17T08:26:31.296Z,18.22
2018-04-17T08:26:56.909Z,18.28
2018-04-17T08:27:22.510Z,18.25
2018-04-17T08:27:48.016Z,18.19
2018-04-17T08:28:13.613Z,18.22
2018-04-17T08:28:39.155Z,18.2
2018-04-17T08:29:04.820Z,18.2
2018-04-17T08:29:30.386Z,18.23
2018-04-17T08:29:55.951Z,18.22
2018-04-17T08:30:21.651Z,18.33
2018-04-17T08:30:47.157Z,18.35
2018-04-17T08:31:12.745Z,18.33
2018-04-17T08:31:38.371Z,18.37
2018-04-17T08:32:04.051Z,18.28
2018-04-17T08:32:29.729Z,18.29
2018-04-17T08:32:55.183Z,18.26
2018-04-17T08:33:20.811Z,18.41
2018-04-17T08:33:46.343Z,18.4
2018-04-17T08:34:12.067Z,18.49
2018-04-17T08:34:37.768Z,18.34
2018-04-17T08:35:03.337Z,18.41
2018-04-17T08:35:28.974Z,18.43
2018-04-17T08:35:54.639Z,18.44
2018-04-17T08:36:20.282Z,18.45
2018-04-17T08:36:45.922Z,18.44
2018-04-17T08:37:11.428Z,18.5
2018-04-17T08:37:37.128Z,18.49
2018-04-17T08:38:02.767Z,18.52
2018-04-17T08:38:28.359Z,18.5
2018-04-17T08:38:53.943Z,18.47
2018-04-17T08:39:19.521Z,18.45
2018-04-17T08:39:45.131Z,18.44
2018-04-17T08:40:10.744Z,18.43
2018-04-17T08:40:36.302Z,18.35
2018-04-17T08:41:01.961Z,18.4
2018-04-17T08:41:27.487Z,18.43
2018-04-17T08:41:53.228Z,18.52
2018-04-17T08:42:18.835Z,18.45
2018-04-17T08:42:44.625Z,18.45
2018-04-17T08:43:10.229Z,18.52
2018-04-17T08:43:35.885Z,18.52
2018-04-17T08:44:01.418Z,18.56
2018-04-17T08:44:27.035Z,18.5
2018-04-17T08:44:52.696Z,18.56
2018-04-17T08:45:18.271Z,18.6
2018-04-17T08:45:43.788Z,18.58
2018-04-17T08:46:09.443Z,18.6
2018-04-17T08:46:34.958Z,18.62
2018-04-17T08:47:00.558Z,18.58
2018-04-17T08:47:26.028Z,18.56
2018-04-17T08:47:51.580Z,18.65
2018-04-17T08:48:17.175Z,18.63
2018-04-17T08:48:42.730Z,18.62
2018-04-17T08:49:08.365Z,18.73
2018-04-17T08:49:33.941Z,18.8
2018-04-17T08:49:59.521Z,18.7
2018-04-17T08:50:25.145Z,18.75
2018-04-17T08:50:50.738Z,18.84
2018-04-17T08:51:16.329Z,18.71
2018-04-17T08:51:41.905Z,18.71
2018-04-17T08:52:07.559Z,18.78
2018-04-17T08:52:33.177Z,18.71
2018-04-17T08:52:58.731Z,18.71
2018-04-17T08:53:24.294Z,18.71
2018-04-17T08:53:49.867Z,18.83
2018-04-17T08:54:15.483Z,18.81
2018-04-17T08:54:41.062Z,18.84
2018-04-17T08:55:06.695Z,18.83
2018-04-17T08:55:32.324Z,18.84
2018-04-17T08:55:57.798Z,18.78
2018-04-17T08:56:23.442Z,18.71
2018-04-17T08:56:49.008Z,18.71
2018-04-17T08:57:14.513Z,18.75
2018-04-17T08:57:40.059Z,18.77
2018-04-17T08:58:05.576Z,18.81
2018-04-17T08:58:31.103Z,18.86
2018-04-17T08:58:56.756Z,18.84
2018-04-17T08:59:22.247Z,18.84
2018-04-17T08:59:47.788Z,18.9
2018-04-17T09:00:13.349Z,18.98
2018-04-17T09:00:38.877Z,18.95
2018-04-17T09:01:04.407Z,19.02
2018-04-17T09:01:29.937Z,19
2018-04-17T09:01:55.477Z,19.02
2018-04-17T09:02:21.052Z,19.15
2018-04-17T09:02:46.615Z,19.15
2018-04-17T09:03:12.238Z,19.3
2018-04-17T09:03:37.753Z,19.27
2018-04-17T09:04:03.298Z,19.33
2018-04-17T09:04:28.802Z,19.29
2018-04-17T09:04:54.418Z,19.36
2018-04-17T09:05:20.041Z,19.41
2018-04-17T09:06:28.748Z,19.45
2018-04-17T09:06:54.295Z,19.51
2018-04-17T09:08:02.522Z,19.56
2018-04-17T09:08:28.033Z,19.64
2018-04-17T09:08:53.530Z,19.63
2018-04-17T09:09:19.097Z,19.69
2018-04-17T09:09:44.797Z,19.67
2018-04-17T09:10:10.335Z,19.64
2018-04-17T09:10:35.855Z,19.67
2018-04-17T09:11:01.514Z,19.66
2018-04-17T09:11:27.031Z,19.67
2018-04-17T09:11:52.644Z,19.66
2018-04-17T09:12:18.201Z,19.63
2018-04-17T09:12:43.746Z,19.63
2018-04-17T09:13:09.372Z,19.58
2018-04-17T09:13:34.985Z,19.59
2018-04-17T09:14:00.561Z,19.56
2018-04-17T09:14:26.002Z,19.58
2018-04-17T09:14:51.541Z,19.63
2018-04-17T09:15:17.169Z,19.69
2018-04-17T09:15:42.838Z,19.55
2018-04-17T09:16:08.378Z,19.55
2018-04-17T09:16:34.049Z,19.69
2018-04-17T09:16:59.571Z,19.7
2018-04-17T09:17:25.284Z,19.7
2018-04-17T09:17:50.845Z,19.64
2018-04-17T09:18:16.423Z,19.77
2018-04-17T09:18:42.046Z,19.73
2018-04-17T09:19:07.543Z,19.77
2018-04-17T09:19:33.150Z,19.81
2018-04-17T09:19:58.823Z,19.85
2018-04-17T09:20:24.397Z,19.91
2018-04-17T09:20:50.086Z,20.02
2018-04-17T09:21:15.695Z,20
2018-04-17T09:21:41.313Z,19.99
2018-04-17T09:22:06.990Z,20.02
2018-04-17T09:22:32.817Z,20.09
2018-04-17T09:22:58.310Z,19.99
2018-04-17T09:23:23.889Z,20.03
2018-04-17T09:23:49.517Z,19.95
2018-04-17T09:24:15.209Z,20.03
2018-04-17T09:24:40.864Z,19.92
2018-04-17T09:25:06.439Z,19.92
2018-04-17T09:25:32.066Z,20.04
2018-04-17T09:25:57.702Z,19.89
2018-04-17T09:26:23.490Z,19.99
2018-04-17T09:26:49.242Z,19.94
2018-04-17T09:27:14.748Z,19.96
2018-04-17T09:27:40.472Z,20
2018-04-17T09:28:06.141Z,19.99
2018-04-17T09:28:31.670Z,20.03
2018-04-17T09:28:57.365Z,20.03
2018-04-17T09:29:22.965Z,20.07
2018-04-17T09:29:48.430Z,20.13
2018-04-17T09:30:13.981Z,20.09
2018-04-17T09:30:39.564Z,20.16
2018-04-17T09:31:05.139Z,20.14
2018-04-17T09:31:30.710Z,20.26
2018-04-17T09:31:56.354Z,20.26
2018-04-17T09:32:22.009Z,20.22
2018-04-17T09:32:47.560Z,20.19
2018-04-17T09:33:41.098Z,20.32
2018-04-17T09:34:06.575Z,20.34
2018-04-17T09:34:32.196Z,20.44
2018-04-17T09:34:57.732Z,20.4
2018-04-17T09:35:23.253Z,20.44
2018-04-17T09:35:48.952Z,20.34
2018-04-17T09:36:14.503Z,20.47
2018-04-17T09:36:40.123Z,20.39
2018-04-17T09:37:05.720Z,20.39
2018-04-17T09:37:31.353Z,20.55
2018-04-17T09:37:57.002Z,20.52
2018-04-17T09:38:22.645Z,20.47
2018-04-17T09:38:48.397Z,20.51
2018-04-17T09:39:14.062Z,20.56
2018-04-17T09:39:39.651Z,20.52
2018-04-17T09:40:05.242Z,20.56
2018-04-17T09:40:30.743Z,20.56
2018-04-17T09:40:56.306Z,20.47
2018-04-17T09:41:21.926Z,20.39
2018-04-17T09:41:47.533Z,20.4
2018-04-17T09:42:13.153Z,20.39
2018-04-17T09:42:38.651Z,20.4
2018-04-17T09:43:04.284Z,20.43
2018-04-17T09:43:29.765Z,20.37
2018-04-17T09:43:55.360Z,20.43
2018-04-17T09:44:20.957Z,20.37